createdAt,value
2018-07-25T00:01:26.856Z,100227.77
2018-07-25T00:03:54.972Z,100224.27
2018-07-25T00:06:23.039Z,100228.31
2018-07-25T00:08:51.355Z,100229.72
2018-07-25T00:11:19.507Z,100225.84
2018-07-25T00:13:47.816Z,100227.09
2018-07-25T00:16:15.976Z,100220.94
2018-07-25T00:18:44.162Z,100217.94
2018-07-25T00:21:12.287Z,100217.60
2018-07-25T00:23:40.343Z,100225.52
2018-07-25T00:26:08.635Z,100219.37
2018-07-25T00:28:36.728Z,100219.19
2018-07-25T00:31:04.792Z,100227.09
2018-07-25T00:33:32.840Z,100225.70
2018-07-25T00:36:00.902Z,100225.08
2018-07-25T00:38:28.940Z,100227.96
2018-07-25T00:40:56.976Z,100228.49
2018-07-25T00:43:25.127Z,100229.63
2018-07-25T00:45:53.295Z,100229.72
2018-07-25T00:48:21.523Z,100223.72
2018-07-25T00:50:49.872Z,100229.18
2018-07-25T00:53:18.127Z,100223.37
2018-07-25T00:55:46.554Z,100230.05
2018-07-25T00:58:15.048Z,100233.28
2018-07-25T01:00:43.092Z,100229.18
2018-07-25T01:03:11.137Z,100230.92
2018-07-25T01:05:39.178Z,100226.71
2018-07-25T01:08:07.231Z,100228.27
2018-07-25T01:10:38.873Z,100225.47
2018-07-25T01:13:06.915Z,100226.71
2018-07-25T01:15:34.971Z,100228.12
2018-07-25T01:18:03.031Z,100232.33
2018-07-25T01:20:31.089Z,100236.02
2018-07-25T01:22:59.131Z,100239.50
2018-07-25T01:25:27.184Z,100240.29
2018-07-25T01:27:55.239Z,100237.55
2018-07-25T01:30:23.258Z,100241.50
2018-07-25T01:32:51.639Z,100243.25
2018-07-25T01:35:19.654Z,100239.77
2018-07-25T01:37:47.775Z,100239.69
2018-07-25T01:40:15.972Z,100241.89
2018-07-25T01:42:44.252Z,100242.50
2018-07-25T01:45:12.287Z,100244.06
2018-07-25T01:47:40.324Z,100242.23
2018-07-25T01:50:08.559Z,100241.78
2018-07-25T01:52:36.591Z,100247.33
2018-07-25T01:55:05.822Z,100249.19
2018-07-25T01:57:33.900Z,100252.14
2018-07-25T02:00:01.937Z,100251.75
2018-07-25T02:02:29.964Z,100252.46
2018-07-25T02:04:58.284Z,100245.86
2018-07-25T02:07:26.339Z,100250.52
2018-07-25T02:09:54.655Z,100252.57
2018-07-25T02:12:22.703Z,100252.03
2018-07-25T02:14:50.822Z,100255.17
2018-07-25T02:17:18.989Z,100256.04
2018-07-25T02:19:47.382Z,100254.70
2018-07-25T02:22:15.713Z,100257.95
2018-07-25T02:24:43.950Z,100251.55
2018-07-25T02:27:12.091Z,100250.94
2018-07-25T02:29:40.283Z,100253.75
2018-07-25T02:32:08.372Z,100259.71
2018-07-25T02:34:36.415Z,100252.88
2018-07-25T02:37:04.460Z,100256.83
2018-07-25T02:39:32.501Z,100258.23
2018-07-25T02:42:00.539Z,100264.84
2018-07-25T02:44:28.579Z,100260.44
2018-07-25T02:46:56.635Z,100262.64
2018-07-25T02:49:24.896Z,100259.45
2018-07-25T02:51:53.024Z,100258.30
2018-07-25T02:54:21.143Z,100264.18
2018-07-25T02:56:49.378Z,100261.63
2018-07-25T02:59:17.604Z,100271.23
2018-07-25T03:01:46.003Z,100275.41
2018-07-25T03:04:14.355Z,100279.40
2018-07-25T03:06:42.878Z,100279.24
2018-07-25T03:09:11.227Z,100275.07
2018-07-25T03:11:39.540Z,100274.52
2018-07-25T03:14:07.641Z,100279.03
2018-07-25T03:16:35.717Z,100283.38
2018-07-25T03:19:03.720Z,100284.42
2018-07-25T03:21:31.750Z,100283.48
2018-07-25T03:23:59.775Z,100280.58
2018-07-25T03:26:27.819Z,100286.19
2018-07-25T03:28:55.940Z,100285.58
2018-07-25T03:31:24.105Z,100287.88
2018-07-25T03:33:52.295Z,100285.08
2018-07-25T03:36:20.671Z,100286.23
2018-07-25T03:38:48.831Z,100288.63
2018-07-25T03:41:17.115Z,100281.77
2018-07-25T03:43:45.413Z,100286.91
2018-07-25T03:46:13.617Z,100286.86
2018-07-25T03:48:41.850Z,100286.61
2018-07-25T03:51:09.959Z,100289.41
2018-07-25T03:53:38.033Z,100288.92
2018-07-25T03:56:06.376Z,100282.52
2018-07-25T03:58:34.411Z,100289.94
2018-07-25T04:01:02.440Z,100292.14
2018-07-25T04:03:30.476Z,100293.98
2018-07-25T04:05:58.520Z,100298.88
2018-07-25T04:08:26.567Z,100297.67
2018-07-25T04:10:54.615Z,100296.02
2018-07-25T04:13:22.643Z,100303.52
2018-07-25T04:15:50.667Z,100310.12
2018-07-25T04:18:18.763Z,100311.31
2018-07-25T04:20:46.827Z,100316.36
2018-07-25T04:23:14.883Z,100317.98
2018-07-25T04:25:43.207Z,100319.30
2018-07-25T04:28:11.239Z,100323.73
2018-07-25T04:30:39.323Z,100320.26
2018-07-25T04:33:07.355Z,100325.36
2018-07-25T04:35:35.393Z,100331.04
2018-07-25T04:38:03.410Z,100331.80
2018-07-25T04:40:31.427Z,100327.47
2018-07-25T04:42:59.780Z,100326.88
2018-07-25T04:45:27.828Z,100327.11
2018-07-25T04:47:55.939Z,100323.09
2018-07-25T04:50:24.137Z,100325.02
2018-07-25T04:52:52.270Z,100323.49
2018-07-25T04:55:20.479Z,100330.92
2018-07-25T04:57:48.707Z,100320.32
2018-07-25T05:00:17.046Z,100320.80
2018-07-25T05:02:45.640Z,100320.91
2018-07-25T05:05:13.823Z,100328.33
2018-07-25T05:07:42.037Z,100324.78
2018-07-25T05:10:10.244Z,100323.94
2018-07-25T05:12:38.486Z,100326.88
2018-07-25T05:15:07.441Z,100332.00
2018-07-25T05:17:35.507Z,100343.16
2018-07-25T05:20:03.535Z,100337.95
2018-07-25T05:22:31.579Z,100342.02
2018-07-25T05:24:59.668Z,100350.23
2018-07-25T05:27:27.767Z,100347.55
2018-07-25T05:29:56.013Z,100351.38
2018-07-25T05:32:24.188Z,100355.86
2018-07-25T05:34:52.240Z,100353.64
2018-07-25T05:37:20.267Z,100354.20
2018-07-25T05:39:48.335Z,100350.00
2018-07-25T05:42:16.369Z,100351.28
2018-07-25T05:44:44.411Z,100352.30
2018-07-25T05:47:12.446Z,100345.64
2018-07-25T05:49:40.507Z,100347.20
2018-07-25T05:52:08.536Z,100347.92
2018-07-25T05:54:36.590Z,100347.53
2018-07-25T05:57:04.640Z,100356.59
2018-07-25T05:59:32.671Z,100354.05
2018-07-25T06:02:00.759Z,100350.81
2018-07-25T06:04:28.795Z,100352.43
2018-07-25T06:06:56.890Z,100355.95
2018-07-25T06:09:25.088Z,100355.55
2018-07-25T06:11:53.194Z,100349.47
2018-07-25T06:14:21.376Z,100349.86
2018-07-25T06:16:49.460Z,100344.59
2018-07-25T06:19:17.704Z,100343.34
2018-07-25T06:21:45.746Z,100345.11
2018-07-25T06:24:14.051Z,100340.38
2018-07-25T06:26:42.183Z,100345.28
2018-07-25T06:29:10.258Z,100352.03
2018-07-25T06:31:38.395Z,100351.38
2018-07-25T06:34:06.667Z,100352.30
2018-07-25T06:36:34.675Z,100345.39
2018-07-25T06:39:02.710Z,100344.20
2018-07-25T06:41:30.752Z,100346.78
2018-07-25T06:43:58.799Z,100346.42
2018-07-25T06:46:26.868Z,100352.31
2018-07-25T06:48:54.923Z,100348.59
2018-07-25T06:51:22.977Z,100349.16
2018-07-25T06:53:51.034Z,100347.99
2018-07-25T06:56:19.080Z,100349.58
2018-07-25T06:58:47.143Z,100352.70
2018-07-25T07:01:15.191Z,100352.75
2018-07-25T07:03:43.219Z,100351.67
2018-07-25T07:06:11.291Z,100357.59
2018-07-25T07:08:39.377Z,100357.83
2018-07-25T07:11:07.408Z,100355.33
2018-07-25T07:13:35.451Z,100355.13
2018-07-25T07:16:03.499Z,100364.83
2018-07-25T07:18:31.607Z,100361.87
2018-07-25T07:20:59.657Z,100360.83
2018-07-25T07:23:27.699Z,100366.49
2018-07-25T07:25:55.828Z,100362.20
2018-07-25T07:28:23.827Z,100367.71
2018-07-25T07:30:51.981Z,100371.41
2018-07-25T07:33:20.008Z,100365.88
2018-07-25T07:35:48.079Z,100371.23
2018-07-25T07:38:16.107Z,100366.99
2018-07-25T07:40:44.154Z,100363.64
2018-07-25T07:43:12.203Z,100372.84
2018-07-25T07:45:40.288Z,100369.99
2018-07-25T07:48:08.312Z,100364.58
2018-07-25T07:50:36.339Z,100370.11
2018-07-25T07:53:04.406Z,100367.25
2018-07-25T07:55:32.421Z,100352.97
2018-07-25T07:58:00.483Z,100367.34
2018-07-25T08:00:28.531Z,100357.83
2018-07-25T08:02:56.564Z,100363.48
2018-07-25T08:05:24.595Z,100361.12
2018-07-25T08:07:52.641Z,100358.48
2018-07-25T08:10:20.716Z,100356.26
2018-07-25T08:12:48.746Z,100353.48
2018-07-25T08:15:16.820Z,100362.72
2018-07-25T08:17:44.939Z,100367.52
2018-07-25T08:20:12.957Z,100359.84
2018-07-25T08:22:41.027Z,100364.71
2018-07-25T08:25:09.166Z,100363.51
2018-07-25T08:27:37.302Z,100355.02
2018-07-25T08:30:05.792Z,100365.59
2018-07-25T08:32:33.865Z,100359.16
2018-07-25T08:35:01.900Z,100366.05
2018-07-25T08:37:30.019Z,100365.19
2018-07-25T08:39:58.073Z,100359.36
2018-07-25T08:42:26.308Z,100362.91
2018-07-25T08:44:54.493Z,100363.34
2018-07-25T08:47:23.559Z,100361.41
2018-07-25T08:49:51.723Z,100361.56
2018-07-25T08:52:19.863Z,100359.70
2018-07-25T08:54:48.165Z,100356.67
2018-07-25T08:57:16.618Z,100364.00
2018-07-25T08:59:44.966Z,100361.34
2018-07-25T09:02:13.159Z,100357.27
2018-07-25T09:04:41.238Z,100361.45
2018-07-25T09:07:09.267Z,100366.27
2018-07-25T09:09:37.351Z,100365.95
2018-07-25T09:12:05.367Z,100361.33
2018-07-25T09:14:33.411Z,100358.44
2018-07-25T09:17:01.450Z,100364.86
2018-07-25T09:19:29.501Z,100366.88
2018-07-25T09:21:57.560Z,100364.69
2018-07-25T09:24:25.586Z,100361.23
2018-07-25T09:26:53.668Z,100360.13
2018-07-25T09:29:21.757Z,100355.05
2018-07-25T09:31:49.817Z,100357.82
2018-07-25T09:34:17.978Z,100358.06
2018-07-25T09:36:46.084Z,100366.17
2018-07-25T09:39:14.347Z,100361.59
2018-07-25T09:41:42.501Z,100362.06
2018-07-25T09:44:10.621Z,100354.69
2018-07-25T09:46:38.788Z,100358.52
2018-07-25T09:49:06.840Z,100357.66
2018-07-25T09:51:34.940Z,100350.14
2018-07-25T09:54:02.975Z,100355.29
2018-07-25T09:56:31.045Z,100355.05
2018-07-25T09:58:59.191Z,100356.80
2018-07-25T10:01:27.147Z,100356.91
2018-07-25T10:03:55.223Z,100353.81
2018-07-25T10:06:23.254Z,100350.94
2018-07-25T10:08:51.279Z,100344.27
2018-07-25T10:11:19.342Z,100343.30
2018-07-25T10:13:47.383Z,100349.30
2018-07-25T10:16:15.431Z,100343.46
2018-07-25T10:18:43.473Z,100339.06
2018-07-25T10:21:11.528Z,100342.88
2018-07-25T10:23:39.584Z,100340.48
2018-07-25T10:26:07.630Z,100339.52
2018-07-25T10:28:35.708Z,100336.80
2018-07-25T10:31:03.801Z,100337.87
2018-07-25T10:33:31.889Z,100341.45
2018-07-25T10:35:59.922Z,100335.61
2018-07-25T10:38:28.148Z,100333.86
2018-07-25T10:40:56.256Z,100332.42
2018-07-25T10:43:24.508Z,100327.52
2018-07-25T10:45:52.769Z,100322.67
2018-07-25T10:48:20.843Z,100323.57
2018-07-25T10:50:49.115Z,100328.61
2018-07-25T10:53:17.473Z,100312.08
2018-07-25T10:55:45.600Z,100325.80
2018-07-25T10:58:13.867Z,100330.91
2018-07-25T11:00:41.946Z,100327.43
2018-07-25T11:03:10.138Z,100333.73
2018-07-25T11:05:38.179Z,100329.58
2018-07-25T11:08:06.236Z,100321.08
2018-07-25T11:10:34.265Z,100329.84
2018-07-25T11:13:02.321Z,100321.03
2018-07-25T11:15:30.405Z,100327.34
2018-07-25T11:17:58.455Z,100327.76
2018-07-25T11:20:26.475Z,100328.14
2018-07-25T11:22:54.802Z,100318.13
2018-07-25T11:25:22.864Z,100320.59
2018-07-25T11:27:51.331Z,100320.84
2018-07-25T11:30:19.980Z,100320.62
2018-07-25T11:32:48.262Z,100302.36
2018-07-25T11:35:16.311Z,100306.20
2018-07-25T11:37:44.456Z,100308.80
2018-07-25T11:40:12.501Z,100306.30
2018-07-25T11:42:40.656Z,100309.44
2018-07-25T11:45:08.707Z,100310.33
2018-07-25T11:47:36.737Z,100306.55
2018-07-25T11:50:04.827Z,100314.06
2018-07-25T11:52:32.820Z,100310.21
2018-07-25T11:55:00.916Z,100304.72
2018-07-25T11:57:28.963Z,100307.55
2018-07-25T11:59:56.980Z,100314.03
2018-07-25T12:02:25.022Z,100311.98
2018-07-25T12:04:53.315Z,100304.44
2018-07-25T12:07:21.388Z,100306.35
2018-07-25T12:09:49.372Z,100301.06
2018-07-25T12:12:17.439Z,100300.69
2018-07-25T12:14:45.472Z,100304.47
2018-07-25T12:17:13.522Z,100304.87
2018-07-25T12:19:41.551Z,100303.69
2018-07-25T12:22:09.587Z,100302.12
2018-07-25T12:24:37.652Z,100302.59
2018-07-25T12:27:05.731Z,100300.64
2018-07-25T12:29:33.787Z,100303.70
2018-07-25T12:32:01.811Z,100293.03
2018-07-25T12:34:29.933Z,100301.89
2018-07-25T12:36:57.968Z,100299.28
2018-07-25T12:39:26.112Z,100296.44
2018-07-25T12:41:54.268Z,100296.33
2018-07-25T12:44:22.435Z,100292.12
2018-07-25T12:46:51.267Z,100285.81
2018-07-25T12:49:19.328Z,100301.92
2018-07-25T12:51:47.346Z,100296.93
2018-07-25T12:54:15.436Z,100297.17
2018-07-25T12:56:43.408Z,100294.03
2018-07-25T12:59:11.438Z,100290.41
2018-07-25T13:01:39.492Z,100289.25
2018-07-25T13:04:07.549Z,100293.39
2018-07-25T13:06:35.575Z,100285.84
2018-07-25T13:09:05.884Z,100290.52
2018-07-25T13:11:33.924Z,100282.64
2018-07-25T13:14:02.007Z,100288.35
2018-07-25T13:16:30.048Z,100279.74
2018-07-25T13:18:58.062Z,100289.41
2018-07-25T13:21:26.100Z,100279.30
2018-07-25T13:23:54.219Z,100280.49
2018-07-25T13:26:22.315Z,100275.61
2018-07-25T13:28:50.457Z,100275.98
2018-07-25T13:31:19.094Z,100279.77
2018-07-25T13:33:47.368Z,100276.85
2018-07-25T13:36:15.493Z,100279.55
2018-07-25T13:38:43.555Z,100282.09
2018-07-25T13:41:11.624Z,100280.93
2018-07-25T13:43:39.684Z,100275.52
2018-07-25T13:46:07.836Z,100267.70
2018-07-25T13:48:35.839Z,100268.94
2018-07-25T13:51:03.906Z,100268.16
2018-07-25T13:53:31.967Z,100267.51
2018-07-25T13:56:00.020Z,100262.55
2018-07-25T13:58:28.072Z,100257.87
2018-07-25T14:00:56.199Z,100266.22
2018-07-25T14:03:24.263Z,100261.20
2018-07-25T14:05:52.348Z,100265.28
2018-07-25T14:08:20.403Z,100260.20
2018-07-25T14:10:48.611Z,100246.39
2018-07-25T14:13:16.632Z,100251.85
2018-07-25T14:15:44.683Z,100252.56
2018-07-25T14:18:12.939Z,100249.22
2018-07-25T14:20:40.946Z,100244.97
2018-07-25T14:23:09.011Z,100246.12
2018-07-25T14:25:37.039Z,100249.64
2018-07-25T14:28:05.116Z,100240.02
2018-07-25T14:30:33.234Z,100240.73
2018-07-25T14:33:01.204Z,100245.28
2018-07-25T14:35:29.253Z,100242.56
2018-07-25T14:37:57.310Z,100248.03
2018-07-25T14:40:25.423Z,100250.66
2018-07-25T14:42:53.444Z,100252.34
2018-07-25T14:45:21.503Z,100252.28
2018-07-25T14:47:49.552Z,100254.06
2018-07-25T14:50:17.671Z,100257.17
2018-07-25T14:52:45.748Z,100247.48
2018-07-25T14:55:13.832Z,100255.97
2018-07-25T14:57:41.891Z,100250.13
2018-07-25T15:00:10.073Z,100237.13
2018-07-25T15:02:38.216Z,100240.13
2018-07-25T15:05:06.210Z,100235.55
2018-07-25T15:07:34.271Z,100231.71
2018-07-25T15:10:02.307Z,100236.08
2018-07-25T15:12:35.886Z,100235.16
2018-07-25T15:15:04.525Z,100225.83
2018-07-25T15:17:32.614Z,100225.18
2018-07-25T15:20:00.758Z,100226.63
2018-07-25T15:22:28.920Z,100234.44
2018-07-25T15:24:57.302Z,100229.25
2018-07-25T15:27:25.417Z,100230.82
2018-07-25T15:29:53.454Z,100222.88
2018-07-25T15:32:21.536Z,100224.17
2018-07-25T15:34:49.566Z,100220.11
2018-07-25T15:37:17.604Z,100216.59
2018-07-25T15:39:45.633Z,100218.14
2018-07-25T15:42:13.691Z,100222.31
2018-07-25T15:44:41.752Z,100222.02
2018-07-25T15:47:09.775Z,100225.14
2018-07-25T15:49:37.828Z,100220.34
2018-07-25T15:52:05.887Z,100221.38
2018-07-25T15:54:33.944Z,100218.66
2018-07-25T15:57:01.983Z,100226.45
2018-07-25T15:59:29.998Z,100227.10
2018-07-25T16:01:58.056Z,100216.84
2018-07-25T16:04:26.120Z,100218.53
2018-07-25T16:06:54.628Z,100221.41
2018-07-25T16:09:22.687Z,100222.20
2018-07-25T16:11:50.747Z,100218.94
2018-07-25T16:14:19.610Z,100221.81
2018-07-25T16:16:48.309Z,100220.23
2018-07-25T16:19:16.529Z,100224.01
2018-07-25T16:21:45.155Z,100228.69
2018-07-25T16:24:13.332Z,100227.26
2018-07-25T16:26:41.403Z,100226.48
2018-07-25T16:29:09.546Z,100226.63
2018-07-25T16:31:37.605Z,100225.06
2018-07-25T16:34:05.663Z,100226.35
2018-07-25T16:36:33.707Z,100226.50
2018-07-25T16:39:01.730Z,100225.70
2018-07-25T16:41:29.760Z,100226.47
2018-07-25T16:43:57.794Z,100228.29
2018-07-25T16:46:25.896Z,100232.95
2018-07-25T16:48:54.056Z,100236.20
2018-07-25T16:51:22.191Z,100234.54
2018-07-25T16:53:50.271Z,100235.08
2018-07-25T16:56:18.472Z,100243.56
2018-07-25T17:01:21.061Z,100238.59
2018-07-25T17:03:49.363Z,100229.75
2018-07-25T17:06:17.553Z,100247.45
2018-07-25T17:08:45.589Z,100243.05
2018-07-25T17:11:13.622Z,100240.17
2018-07-25T17:13:41.695Z,100244.99
2018-07-25T17:16:09.995Z,100241.87
2018-07-25T17:18:38.047Z,100242.52
2018-07-25T17:21:07.007Z,100258.67
2018-07-25T17:23:41.824Z,100253.84
2018-07-25T17:26:10.127Z,100264.35
2018-07-25T17:28:38.163Z,100272.03
2018-07-25T17:31:06.395Z,100276.03
2018-07-25T17:33:34.627Z,100277.84
2018-07-25T17:36:02.677Z,100289.56
2018-07-25T17:38:30.760Z,100286.31
2018-07-25T17:40:58.830Z,100293.72
2018-07-25T17:43:26.816Z,100286.57
2018-07-25T17:45:54.847Z,100287.51
2018-07-25T17:48:23.007Z,100295.98
2018-07-25T17:50:51.042Z,100294.37
2018-07-25T17:53:19.068Z,100302.84
2018-07-25T17:55:47.130Z,100303.00
2018-07-25T17:58:15.126Z,100307.93
2018-07-25T18:00:43.159Z,100314.45
2018-07-25T18:03:11.213Z,100320.53
2018-07-25T18:05:39.247Z,100323.11
2018-07-25T18:08:07.304Z,100324.09
2018-07-25T18:10:35.511Z,100331.63
2018-07-25T18:13:08.936Z,100333.55
2018-07-25T18:15:36.971Z,100344.02
2018-07-25T18:18:05.007Z,100345.59
2018-07-25T18:20:33.059Z,100353.69
2018-07-25T18:23:01.198Z,100365.77
2018-07-25T18:25:29.211Z,100365.31
2018-07-25T18:27:57.227Z,100375.30
2018-07-25T18:30:25.284Z,100376.59
2018-07-25T18:32:53.325Z,100378.19
2018-07-25T18:35:21.339Z,100381.45
2018-07-25T18:37:49.366Z,100390.64
2018-07-25T18:40:17.374Z,100393.52
2018-07-25T18:42:45.640Z,100398.89
2018-07-25T18:45:13.727Z,100413.05
2018-07-25T18:47:41.782Z,100421.20
2018-07-25T18:50:10.728Z,100425.12
2018-07-25T18:52:38.778Z,100429.70
2018-07-25T18:55:06.824Z,100436.30
2018-07-25T18:57:34.880Z,100442.10
2018-07-25T19:00:02.963Z,100437.39
2018-07-25T19:02:31.071Z,100451.20
2018-07-25T19:04:59.097Z,100443.35
2018-07-25T19:07:27.211Z,100445.16
2018-07-25T19:09:55.382Z,100444.67
2018-07-25T19:12:23.615Z,100452.34
2018-07-25T19:14:57.122Z,100457.99
2018-07-25T19:17:25.179Z,100454.89
2018-07-25T19:19:53.190Z,100460.55
2018-07-25T19:22:21.456Z,100466.71
2018-07-25T19:24:49.519Z,100473.30
2018-07-25T19:27:17.547Z,100472.99
2018-07-25T19:29:45.583Z,100465.13
2018-07-25T19:32:13.636Z,100463.47
2018-07-25T19:34:41.679Z,100466.52
2018-07-25T19:37:09.832Z,100470.05
2018-07-25T19:39:38.876Z,100457.00
2018-07-25T19:42:08.736Z,100454.09
2018-07-25T19:44:37.534Z,100459.92
2018-07-25T19:47:06.295Z,100451.61
2018-07-25T19:49:35.162Z,100446.38
2018-07-25T19:52:03.621Z,100446.70
2018-07-25T19:54:31.738Z,100446.08
2018-07-25T19:56:59.863Z,100441.02
2018-07-25T19:59:27.934Z,100440.21
2018-07-25T20:01:56.575Z,100429.32
2018-07-25T20:04:24.696Z,100442.09
2018-07-25T20:06:52.786Z,100432.06
2018-07-25T20:09:20.940Z,100439.44
2018-07-25T20:11:49.171Z,100435.62
2018-07-25T20:14:22.709Z,100438.30
2018-07-25T20:16:50.775Z,100432.19
2018-07-25T20:19:18.877Z,100430.63
2018-07-25T20:21:46.933Z,100428.30
2018-07-25T20:24:15.306Z,100422.96
2018-07-25T20:26:43.270Z,100430.35
2018-07-25T20:29:11.332Z,100432.23
2018-07-25T20:31:39.641Z,100435.86
2018-07-25T20:34:07.716Z,100437.09
2018-07-25T20:36:35.773Z,100434.57
2018-07-25T20:39:06.175Z,100431.88
2018-07-25T20:41:34.228Z,100430.58
2018-07-25T20:44:02.295Z,100431.23
2018-07-25T20:46:30.332Z,100427.14
2018-07-25T20:48:58.420Z,100430.76
2018-07-25T20:51:26.451Z,100429.17
2018-07-25T20:53:54.516Z,100430.31
2018-07-25T20:56:22.564Z,100434.55
2018-07-25T20:58:50.620Z,100436.44
2018-07-25T21:01:18.646Z,100437.70
2018-07-25T21:03:46.675Z,100442.88
2018-07-25T21:06:15.748Z,100436.11
2018-07-25T21:08:43.847Z,100449.83
2018-07-25T21:11:12.217Z,100444.47
2018-07-25T21:13:40.243Z,100443.85
2018-07-25T21:16:08.386Z,100450.63
2018-07-25T21:18:36.448Z,100443.06
2018-07-25T21:21:04.478Z,100445.20
2018-07-25T21:23:32.531Z,100444.50
2018-07-25T21:26:00.593Z,100438.06
2018-07-25T21:28:29.023Z,100435.66
2018-07-25T21:30:57.060Z,100438.95
2018-07-25T21:33:25.131Z,100437.78
2018-07-25T21:35:53.168Z,100439.20
2018-07-25T21:38:21.243Z,100443.94
2018-07-25T21:40:49.299Z,100442.08
2018-07-25T21:43:17.319Z,100445.23
2018-07-25T21:45:45.491Z,100441.66
2018-07-25T21:48:13.547Z,100442.31
2018-07-25T21:50:41.848Z,100442.80
2018-07-25T21:53:09.892Z,100449.46
2018-07-25T21:55:37.945Z,100445.54
2018-07-25T21:58:06.007Z,100440.20
2018-07-25T22:00:34.076Z,100437.86
2018-07-25T22:03:02.156Z,100439.56
2018-07-25T22:05:30.204Z,100437.68
2018-07-25T22:07:58.272Z,100439.56
2018-07-25T22:10:27.008Z,100438.30
2018-07-25T22:12:55.805Z,100438.30
2018-07-25T22:15:24.330Z,100438.16
2018-07-25T22:17:52.580Z,100437.98
2018-07-25T22:20:20.740Z,100440.45
2018-07-25T22:22:49.088Z,100434.63
2018-07-25T22:25:17.924Z,100433.83
2018-07-25T22:27:46.259Z,100431.30
2018-07-25T22:30:14.480Z,100432.71
2018-07-25T22:32:42.650Z,100431.92
2018-07-25T22:35:10.793Z,100433.95
2018-07-25T22:37:38.891Z,100435.54
2018-07-25T22:40:06.961Z,100435.86
2018-07-25T22:42:35.047Z,100434.80
2018-07-25T22:45:03.099Z,100438.36
2018-07-25T22:47:31.139Z,100439.78
2018-07-25T22:49:59.196Z,100441.19
2018-07-25T22:52:27.366Z,100439.25
2018-07-25T22:54:55.596Z,100443.29
2018-07-25T22:57:23.799Z,100443.23
2018-07-25T22:59:52.285Z,100446.97
2018-07-25T23:02:20.552Z,100444.27
2018-07-25T23:04:48.730Z,100446.29
2018-07-25T23:07:17.297Z,100450.82
2018-07-25T23:09:45.911Z,100452.64
2018-07-25T23:12:14.699Z,100454.34
2018-07-25T23:14:43.127Z,100450.08
2018-07-25T23:17:11.420Z,100449.72
2018-07-25T23:19:39.589Z,100456.45
2018-07-25T23:22:07.668Z,100453.64
2018-07-25T23:24:35.699Z,100451.42
2018-07-25T23:27:03.732Z,100446.58
2018-07-25T23:29:31.846Z,100450.37
2018-07-25T23:31:59.908Z,100452.91
2018-07-25T23:34:28.039Z,100454.14
2018-07-25T23:36:56.321Z,100449.58
2018-07-25T23:39:24.668Z,100453.20
2018-07-25T23:41:53.063Z,100445.34
2018-07-25T23:44:21.453Z,100449.72
2018-07-25T23:46:49.766Z,100446.90
2018-07-25T23:49:17.916Z,100440.48
2018-07-25T23:51:46.170Z,100446.75
2018-07-25T23:54:14.549Z,100447.80
2018-07-25T23:56:42.742Z,100444.66
2018-07-25T23:59:10.792Z,100449.22
